Howard AFB, Panama
Current Conditions -  °F | °C
As of 12:00 PM on Friday 24 Oct 2014 (Local Time) from MPMG Reporting Station
Scattered Clouds Scattered Clouds  
Wind Chill: 91°   Ceiling: Unl
Heat Index: 105°   Visibility: 6mi
Dew Point: 77°   Wind: 3mph
Humidity: 63%   Direction: 160°SSE
Pressure: 29.85"   Gusts: NA
Location:  8.91°N, 79.6°W
Report Text: MPMG 241700Z 16003KT 9000 FEW018TCU SCT090 33/25 Q1011 NOSIG
Loading
Personal Weather Stations






























Interactive Weather Map
Tropical Storm Tracking
New forecast layout! Learn more

10-Day Weather Forecast

Advertisements
Track Severe Weather on mobile